This is the latest recevied weather packets stored in our database for station/object AB4KN. If no packets are shown the sender has not sent any weather packets the latest 1 day(s).
| Time | Temp. | Humidity | Pressure | Rain* | Wind** | Luminosity | Snow |
|---|---|---|---|---|---|---|---|
| 1778118063 | 21.67° C | 89% | 1018.1 hPa | 0 mm | - | 0 W/m² | - |
| 1778117760 | 21.67° C | 89% | 1017.8 hPa | 1.27 mm | - | 0 W/m² | - |
| 1778117457 | 21.67° C | 88% | 1018 hPa | 1.27 mm | - | 0 W/m² | - |
| 1778116850 | 21.67° C | 87% | 1018.2 hPa | 0 mm | - | 0 W/m² | - |
| 1778116548 | 22.22° C | 86% | 1017.8 hPa | 1.78 mm | - | 0 W/m² | - |
| 1778116244 | 22.22° C | 85% | 1017.9 hPa | 1.78 mm | - | 0 W/m² | - |
| 1778115635 | 23.33° C | 82% | 1018.2 hPa | 0 mm | - | 0 W/m² | - |
| 1778115333 | 23.89° C | 80% | 1017.9 hPa | 0 mm | - | 0 W/m² | - |
| 1778115029 | 24.44° C | 76% | 1018.1 hPa | 0 mm | - | 0 W/m² | - |
| 1778114726 | 24.44° C | 74% | 1018.1 hPa | 0 mm | - | 0 W/m² | - |
| 1778114119 | 24.44° C | 74% | 1018.1 hPa | 0 mm | - | 0 W/m² | - |
| 1778113814 | 24.44° C | 74% | 1018 hPa | 0 mm | - | 0 W/m² | - |
| 1778113511 | 24.44° C | 74% | 1018.1 hPa | 0 mm | - | 0 W/m² | - |
| 1778113207 | 24.44° C | 74% | 1018 hPa | 0 mm | - | 0 W/m² | - |
| 1778112297 | 25° C | 73% | 1018 hPa | 0 mm | - | 0 W/m² | - |
| 1778111084 | 25° C | 73% | 1017.7 hPa | 0 mm | - | 4 W/m² | - |
| 1778110174 | 25° C | 73% | 1017.2 hPa | 0 mm | - | 5 W/m² | - |
| 1778109566 | 25° C | 71% | 1017.4 hPa | 0 mm | - | 4 W/m² | - |
| 1778108961 | 25.56° C | 71% | 1017.7 hPa | 0 mm | - | 2 W/m² | - |
| 1778108354 | 25.56° C | 71% | 1017.7 hPa | 0 mm | - | 4 W/m² | - |
| 1778107748 | 25.56° C | 70% | 1017.8 hPa | 0 mm | - | 2 W/m² | - |
| 1778106230 | 25.56° C | 70% | 1017.5 hPa | 0 mm | - | 26 W/m² | - |
| 1778105928 | 25.56° C | 69% | 1017.6 hPa | 0 mm | - | 29 W/m² | - |
| 1778105625 | 25.56° C | 69% | 1017.8 hPa | 0 mm | - | 15 W/m² | - |
| 1778105018 | 25.56° C | 70% | 1017.7 hPa | 0 mm | - | 21 W/m² | - |
* Rain latest hour (hover to see other rain measurements)
** Current wind speed in m/s (hover to see current wind gust speed)